createdAt,value
2023-04-27T00:00:45.727Z,228.75
2023-04-27T00:01:45.726Z,228.71
2023-04-27T00:02:45.866Z,228.51
2023-04-27T00:03:45.855Z,229.24
2023-04-27T00:04:45.826Z,228.82
2023-04-27T00:05:45.728Z,229.04
2023-04-27T00:06:45.755Z,228.89
2023-04-27T00:07:45.697Z,229.56
2023-04-27T00:08:45.680Z,228.36
2023-04-27T00:09:45.704Z,228.58
2023-04-27T00:10:45.708Z,228.08
2023-04-27T00:11:45.676Z,229.28
2023-04-27T00:12:45.700Z,228.33
2023-04-27T00:13:45.721Z,228.57
2023-04-27T00:14:45.718Z,228.38
2023-04-27T00:15:45.737Z,228.00
2023-04-27T00:16:45.765Z,228.69
2023-04-27T00:17:45.753Z,228.95
2023-04-27T00:18:45.706Z,228.08
2023-04-27T00:19:45.774Z,228.78
2023-04-27T00:20:45.690Z,229.39
2023-04-27T00:21:45.709Z,229.09
2023-04-27T00:22:45.725Z,228.36
2023-04-27T00:23:45.752Z,227.71
2023-04-27T00:24:45.764Z,228.84
2023-04-27T00:25:45.731Z,227.93
2023-04-27T00:26:45.808Z,228.69
2023-04-27T00:27:45.704Z,229.12
2023-04-27T00:28:45.754Z,228.46
2023-04-27T00:29:45.706Z,229.11
2023-04-27T00:30:45.780Z,229.07
2023-04-27T00:31:45.810Z,228.95
2023-04-27T00:32:45.825Z,229.04
2023-04-27T00:33:45.716Z,228.06
2023-04-27T00:34:45.918Z,228.44
2023-04-27T00:35:45.754Z,229.25
2023-04-27T00:36:45.722Z,229.73
2023-04-27T00:37:45.750Z,229.74
2023-04-27T00:38:45.718Z,228.62
2023-04-27T00:39:45.759Z,228.66
2023-04-27T00:40:45.762Z,228.46
2023-04-27T00:41:45.741Z,227.72
2023-04-27T00:42:45.764Z,228.23
2023-04-27T00:43:45.796Z,228.70
2023-04-27T00:44:45.777Z,228.09
2023-04-27T00:45:45.786Z,228.75
2023-04-27T00:46:45.721Z,228.67
2023-04-27T00:47:45.821Z,228.55
2023-04-27T00:48:45.737Z,229.07
2023-04-27T00:49:45.727Z,229.51
2023-04-27T00:50:45.738Z,229.52
2023-04-27T00:51:45.711Z,228.31
2023-04-27T00:52:45.757Z,228.88
2023-04-27T00:53:45.720Z,229.26
2023-04-27T00:54:45.749Z,229.36
2023-04-27T00:55:45.712Z,229.53
2023-04-27T00:56:45.785Z,229.18
2023-04-27T00:57:45.726Z,229.56
2023-04-27T00:58:45.720Z,229.66
2023-04-27T00:59:45.755Z,228.49
2023-04-27T01:00:45.754Z,227.27
2023-04-27T01:01:45.789Z,229.25
2023-04-27T01:02:45.875Z,228.26
2023-04-27T01:03:45.918Z,229.40
2023-04-27T01:04:45.728Z,228.20
2023-04-27T01:05:45.717Z,228.98
2023-04-27T01:06:45.726Z,229.22
2023-04-27T01:07:45.717Z,228.76
2023-04-27T01:08:45.783Z,228.70
2023-04-27T01:09:45.764Z,228.35
2023-04-27T01:10:45.697Z,228.58
2023-04-27T01:11:45.701Z,228.64
2023-04-27T01:12:45.773Z,228.69
2023-04-27T01:13:45.707Z,228.13
2023-04-27T01:14:45.919Z,228.14
2023-04-27T01:15:45.734Z,227.73
2023-04-27T01:16:45.791Z,228.91
2023-04-27T01:17:45.767Z,229.43
2023-04-27T01:18:45.704Z,229.22
2023-04-27T01:19:45.747Z,228.75
2023-04-27T01:20:45.713Z,228.80
2023-04-27T01:21:45.704Z,229.21
2023-04-27T01:22:45.714Z,228.31
2023-04-27T01:23:45.713Z,228.31
2023-04-27T01:24:45.779Z,227.91
2023-04-27T01:25:45.739Z,228.73
2023-04-27T01:26:45.704Z,229.14
2023-04-27T01:27:45.720Z,227.76
2023-04-27T01:28:45.744Z,228.33
2023-04-27T01:29:45.787Z,228.09
2023-04-27T01:30:45.736Z,228.21
2023-04-27T01:31:45.818Z,228.52
2023-04-27T01:32:45.818Z,228.46
2023-04-27T01:33:45.736Z,227.52
2023-04-27T01:34:45.704Z,227.96
2023-04-27T01:35:45.720Z,228.71
2023-04-27T01:36:45.811Z,229.70
2023-04-27T01:37:45.780Z,228.35
2023-04-27T01:38:45.727Z,228.71
2023-04-27T01:39:45.750Z,228.22
2023-04-27T01:40:45.728Z,229.64
2023-04-27T01:41:45.749Z,228.47
2023-04-27T01:42:45.754Z,228.41
2023-04-27T01:43:45.743Z,227.88
2023-04-27T01:44:45.792Z,228.18
2023-04-27T01:45:45.760Z,228.50
2023-04-27T01:46:45.811Z,229.50
2023-04-27T01:47:45.776Z,228.48
2023-04-27T01:48:45.751Z,229.45
2023-04-27T01:49:45.785Z,228.77
2023-04-27T01:50:45.754Z,228.85
2023-04-27T01:51:45.748Z,228.41
2023-04-27T01:52:45.769Z,227.84
2023-04-27T01:53:45.761Z,228.31
2023-04-27T01:54:45.784Z,228.46
2023-04-27T01:55:45.725Z,228.90
2023-04-27T01:56:45.740Z,229.09
2023-04-27T01:57:45.731Z,228.20
2023-04-27T01:58:45.723Z,227.27
2023-04-27T01:59:45.716Z,228.67
2023-04-27T02:00:45.740Z,228.54
2023-04-27T02:01:45.779Z,227.65
2023-04-27T02:02:45.817Z,228.68
2023-04-27T02:03:45.885Z,228.63
2023-04-27T02:04:45.826Z,228.50
2023-04-27T02:05:45.734Z,227.90
2023-04-27T02:06:45.749Z,229.42
2023-04-27T02:07:45.736Z,227.94
2023-04-27T02:08:45.733Z,228.16
2023-04-27T02:09:45.729Z,228.07
2023-04-27T02:10:45.738Z,228.70
2023-04-27T02:11:45.790Z,228.43
2023-04-27T02:12:45.732Z,228.20
2023-04-27T02:13:45.746Z,227.64
2023-04-27T02:14:45.775Z,228.62
2023-04-27T02:15:45.768Z,227.28
2023-04-27T02:16:45.749Z,228.69
2023-04-27T02:17:45.818Z,227.91
2023-04-27T02:18:45.737Z,228.60
2023-04-27T02:19:45.738Z,228.86
2023-04-27T02:20:45.753Z,228.78
2023-04-27T02:21:45.713Z,228.23
2023-04-27T02:22:45.777Z,228.73
2023-04-27T02:23:45.743Z,228.06
2023-04-27T02:24:45.750Z,229.24
2023-04-27T02:25:45.746Z,229.08
2023-04-27T02:27:45.712Z,228.08
2023-04-27T02:28:45.741Z,228.60
2023-04-27T02:29:45.767Z,228.62
2023-04-27T02:30:45.722Z,228.62
2023-04-27T02:31:45.773Z,228.21
2023-04-27T02:32:45.788Z,228.74
2023-04-27T02:33:45.706Z,228.93
2023-04-27T02:34:45.749Z,228.65
2023-04-27T02:35:45.719Z,228.44
2023-04-27T02:36:45.743Z,228.83
2023-04-27T02:37:45.760Z,229.71
2023-04-27T02:38:45.728Z,229.64
2023-04-27T02:39:45.731Z,228.91
2023-04-27T02:40:45.703Z,228.79
2023-04-27T02:41:45.727Z,229.45
2023-04-27T02:42:45.697Z,229.74
2023-04-27T02:43:45.707Z,229.97
2023-04-27T02:44:45.732Z,228.41
2023-04-27T02:45:45.703Z,228.30
2023-04-27T02:46:45.780Z,228.02
2023-04-27T02:47:45.730Z,227.90
2023-04-27T02:48:45.658Z,227.46
2023-04-27T02:49:45.679Z,228.08
2023-04-27T02:50:45.673Z,229.31
2023-04-27T02:51:45.659Z,228.87
2023-04-27T02:52:45.681Z,227.49
2023-04-27T02:53:45.693Z,228.07
2023-04-27T02:54:45.670Z,227.91
2023-04-27T02:55:45.684Z,227.96
2023-04-27T02:56:45.683Z,228.06
2023-04-27T02:57:45.716Z,227.78
2023-04-27T02:58:45.679Z,228.63
2023-04-27T02:59:45.687Z,228.21
2023-04-27T03:00:45.795Z,227.22
2023-04-27T03:01:45.774Z,228.50
2023-04-27T03:02:45.841Z,227.78
2023-04-27T03:03:45.765Z,228.33
2023-04-27T03:04:45.845Z,228.48
2023-04-27T03:05:45.660Z,228.50
2023-04-27T03:06:45.670Z,227.72
2023-04-27T03:07:46.034Z,227.72
2023-04-27T03:08:45.688Z,228.91
2023-04-27T03:09:45.636Z,228.73
2023-04-27T03:10:45.642Z,227.85
2023-04-27T03:11:45.680Z,227.88
2023-04-27T03:12:45.633Z,228.32
2023-04-27T03:13:45.639Z,228.47
2023-04-27T03:14:45.684Z,227.23
2023-04-27T03:15:45.644Z,228.53
2023-04-27T03:16:45.695Z,227.79
2023-04-27T03:17:45.689Z,228.29
2023-04-27T03:18:45.648Z,227.31
2023-04-27T03:19:45.664Z,228.25
2023-04-27T03:20:45.677Z,228.65
2023-04-27T03:21:45.646Z,227.99
2023-04-27T03:22:45.652Z,227.53
2023-04-27T03:23:45.624Z,227.44
2023-04-27T03:24:45.645Z,228.00
2023-04-27T03:25:45.637Z,229.31
2023-04-27T03:26:45.617Z,228.53
2023-04-27T03:27:45.662Z,228.00
2023-04-27T03:28:45.625Z,228.63
2023-04-27T03:29:45.620Z,228.03
2023-04-27T03:30:45.594Z,227.90
2023-04-27T03:31:45.685Z,228.14
2023-04-27T03:32:47.574Z,228.11
2023-04-27T03:33:45.615Z,228.25
2023-04-27T03:34:45.636Z,228.69
2023-04-27T03:35:45.618Z,228.08
2023-04-27T03:36:45.620Z,228.27
2023-04-27T03:37:45.588Z,228.47
2023-04-27T03:38:45.613Z,228.93
2023-04-27T03:39:45.680Z,228.55
2023-04-27T03:40:45.644Z,228.40
2023-04-27T03:41:45.620Z,228.28
2023-04-27T03:42:45.588Z,228.07
2023-04-27T03:43:45.579Z,228.70
2023-04-27T03:44:45.623Z,227.26
2023-04-27T03:45:45.608Z,228.27
2023-04-27T03:46:45.574Z,229.70
2023-04-27T03:47:46.036Z,227.87
2023-04-27T03:48:45.593Z,228.11
2023-04-27T03:49:45.613Z,229.60
2023-04-27T03:50:45.626Z,227.87
2023-04-27T03:51:45.578Z,228.74
2023-04-27T03:52:45.586Z,229.54
2023-04-27T03:53:45.575Z,228.24
2023-04-27T03:54:45.596Z,228.26
2023-04-27T03:55:45.652Z,227.93
2023-04-27T03:56:45.561Z,228.93
2023-04-27T03:57:45.612Z,228.01
2023-04-27T03:58:45.554Z,228.24
2023-04-27T03:59:45.592Z,227.56
2023-04-27T04:00:45.620Z,228.18
2023-04-27T04:01:45.596Z,227.22
2023-04-27T04:02:45.667Z,228.67
2023-04-27T04:03:45.669Z,228.43
2023-04-27T04:04:45.659Z,228.23
2023-04-27T04:05:45.603Z,228.63
2023-04-27T04:06:45.564Z,227.41
2023-04-27T04:07:45.543Z,228.78
2023-04-27T04:08:45.561Z,228.18
2023-04-27T04:09:45.555Z,228.69
2023-04-27T04:10:46.414Z,227.69
2023-04-27T04:11:45.562Z,228.65
2023-04-27T04:12:45.549Z,227.86
2023-04-27T04:13:45.542Z,228.61
2023-04-27T04:14:45.519Z,227.68
2023-04-27T04:15:45.564Z,227.48
2023-04-27T04:16:45.523Z,228.11
2023-04-27T04:17:45.549Z,227.46
2023-04-27T04:18:45.586Z,228.95
2023-04-27T04:19:45.524Z,228.74
2023-04-27T04:20:45.932Z,229.15
2023-04-27T04:21:45.525Z,228.27
2023-04-27T04:22:45.543Z,228.54
2023-04-27T04:23:45.527Z,228.23
2023-04-27T04:24:45.539Z,229.11
2023-04-27T04:25:45.534Z,228.67
2023-04-27T04:26:45.539Z,228.30
2023-04-27T04:27:46.427Z,228.44
2023-04-27T04:28:45.508Z,227.56
2023-04-27T04:29:45.521Z,228.34
2023-04-27T04:30:45.536Z,228.21
2023-04-27T04:31:45.580Z,227.48
2023-04-27T04:32:45.589Z,228.95
2023-04-27T04:33:45.509Z,228.41
2023-04-27T04:34:45.481Z,227.96
2023-04-27T04:35:45.503Z,227.84
2023-04-27T04:36:45.493Z,227.29
2023-04-27T04:37:45.531Z,227.06
2023-04-27T04:38:45.482Z,227.73
2023-04-27T04:39:45.517Z,229.17
2023-04-27T04:40:46.126Z,227.95
2023-04-27T04:41:45.512Z,227.99
2023-04-27T04:42:45.520Z,227.27
2023-04-27T04:43:45.464Z,228.69
2023-04-27T04:44:45.510Z,227.69
2023-04-27T04:45:45.480Z,228.39
2023-04-27T04:46:45.488Z,226.85
2023-04-27T04:47:45.531Z,228.73
2023-04-27T04:48:45.464Z,228.19
2023-04-27T04:49:45.505Z,228.19
2023-04-27T04:50:45.954Z,228.22
2023-04-27T04:51:45.470Z,227.68
2023-04-27T04:52:45.470Z,228.74
2023-04-27T04:53:45.457Z,228.31
2023-04-27T04:54:45.444Z,228.18
2023-04-27T04:55:45.463Z,228.76
2023-04-27T04:56:45.464Z,226.79
2023-04-27T04:57:45.505Z,227.14
2023-04-27T04:58:45.442Z,228.44
2023-04-27T04:59:45.448Z,228.14
2023-04-27T05:00:45.433Z,227.56
2023-04-27T05:01:45.485Z,228.32
2023-04-27T05:02:45.511Z,227.59
2023-04-27T05:03:45.545Z,229.11
2023-04-27T05:04:45.561Z,228.05
2023-04-27T05:05:45.445Z,228.18
2023-04-27T05:06:45.441Z,227.47
2023-04-27T05:07:45.470Z,227.87
2023-04-27T05:08:45.450Z,228.26
2023-04-27T05:09:45.459Z,228.90
2023-04-27T05:10:45.991Z,227.38
2023-04-27T05:11:45.441Z,228.10
2023-04-27T05:12:45.435Z,227.71
2023-04-27T05:13:45.490Z,228.82
2023-04-27T05:14:45.429Z,227.52
2023-04-27T05:15:45.471Z,229.10
2023-04-27T05:16:45.424Z,227.83
2023-04-27T05:17:45.501Z,228.54
2023-04-27T05:18:45.457Z,227.47
2023-04-27T05:19:45.436Z,228.62
2023-04-27T05:20:45.462Z,228.82
2023-04-27T05:21:45.477Z,227.43
2023-04-27T05:22:45.449Z,228.93
2023-04-27T05:23:45.500Z,227.29
2023-04-27T05:24:45.468Z,227.83
2023-04-27T05:25:45.445Z,228.52
2023-04-27T05:26:45.482Z,227.48
2023-04-27T05:27:45.544Z,228.29
2023-04-27T05:28:45.435Z,227.36
2023-04-27T05:29:45.553Z,228.80
2023-04-27T05:30:45.446Z,228.77
2023-04-27T05:31:45.543Z,228.98
2023-04-27T05:32:45.469Z,228.59
2023-04-27T05:33:45.455Z,227.66
2023-04-27T05:34:47.337Z,228.49
2023-04-27T05:35:45.404Z,232.09
2023-04-27T05:36:45.406Z,231.16
2023-04-27T05:37:45.421Z,231.26
2023-04-27T05:38:45.401Z,230.25
2023-04-27T05:39:45.381Z,230.50
2023-04-27T05:40:45.493Z,231.43
2023-04-27T05:41:45.424Z,232.50
2023-04-27T05:42:45.674Z,233.84
2023-04-27T05:43:45.351Z,234.89
2023-04-27T05:44:45.359Z,234.98
2023-04-27T05:45:45.364Z,238.64
2023-04-27T05:46:45.354Z,241.95
2023-04-27T05:47:45.355Z,244.16
2023-04-27T05:48:45.375Z,247.40
2023-04-27T05:49:45.357Z,252.33
2023-04-27T05:50:45.340Z,250.00
2023-04-27T05:51:45.305Z,264.66
2023-04-27T05:52:47.005Z,258.65
2023-04-27T05:53:45.321Z,241.01
2023-04-27T05:54:45.275Z,229.22
2023-04-27T05:55:45.269Z,208.85
2023-04-27T05:56:45.376Z,198.73
2023-04-27T05:57:47.701Z,186.88
2023-04-27T05:58:45.275Z,186.39
2023-04-27T05:59:45.346Z,183.07
2023-04-27T06:00:45.248Z,176.60
2023-04-27T06:01:45.266Z,176.14
2023-04-27T06:02:45.400Z,173.27
2023-04-27T06:03:45.581Z,174.34
2023-04-27T06:04:45.276Z,177.79
2023-04-27T06:05:45.282Z,177.37
2023-04-27T06:06:45.202Z,177.36
2023-04-27T06:07:45.206Z,174.44
2023-04-27T06:08:45.219Z,174.44
2023-04-27T06:09:45.179Z,173.33
2023-04-27T06:10:45.249Z,174.35
2023-04-27T06:11:45.159Z,173.23
2023-04-27T06:12:46.393Z,170.95
2023-04-27T06:13:45.148Z,172.39
2023-04-27T06:14:45.142Z,173.80
2023-04-27T06:15:45.238Z,172.43
2023-04-27T06:16:45.195Z,173.96
2023-04-27T06:17:45.154Z,173.46
2023-04-27T06:18:45.138Z,173.35
2023-04-27T06:19:45.181Z,179.49
2023-04-27T06:20:45.547Z,182.93
2023-04-27T06:21:45.134Z,184.34
2023-04-27T06:22:45.103Z,186.31
2023-04-27T06:23:45.100Z,189.18
2023-04-27T06:24:45.102Z,193.50
2023-04-27T06:25:45.163Z,195.38
2023-04-27T06:26:45.082Z,198.93
2023-04-27T06:27:45.096Z,202.75
2023-04-27T06:28:45.075Z,205.87
2023-04-27T06:29:45.059Z,206.69
2023-04-27T06:30:45.054Z,209.51
2023-04-27T06:31:45.118Z,213.28
2023-04-27T06:32:45.107Z,215.90
2023-04-27T06:33:45.054Z,217.61
2023-04-27T06:34:45.088Z,219.33
2023-04-27T06:35:47.054Z,219.90
2023-04-27T06:36:45.246Z,221.91
2023-04-27T06:37:45.498Z,225.35
2023-04-27T06:38:45.139Z,223.83
2023-04-27T06:39:46.743Z,219.98
2023-04-27T06:40:45.221Z,221.31
2023-04-27T06:41:45.231Z,220.70
2023-04-27T06:42:45.536Z,221.76
2023-04-27T06:43:45.271Z,222.33
2023-04-27T06:44:45.295Z,224.83
2023-04-27T06:45:45.300Z,227.08
2023-04-27T06:46:45.310Z,228.42
2023-04-27T06:47:45.346Z,229.53
2023-04-27T06:48:45.311Z,230.31
2023-04-27T06:49:45.309Z,231.16
2023-04-27T06:50:45.490Z,231.74
2023-04-27T06:51:45.349Z,232.13
2023-04-27T06:52:45.341Z,234.68
2023-04-27T06:53:45.322Z,235.74
2023-04-27T06:54:45.380Z,236.81
2023-04-27T06:55:46.920Z,237.73
2023-04-27T06:56:45.313Z,240.99
2023-04-27T06:57:45.306Z,240.42
2023-04-27T06:58:45.310Z,242.27
2023-04-27T06:59:45.286Z,243.38
2023-04-27T07:00:45.303Z,242.09
2023-04-27T07:01:45.288Z,241.28
2023-04-27T07:02:45.436Z,243.75
2023-04-27T07:03:45.390Z,246.78
2023-04-27T07:04:45.347Z,248.28
2023-04-27T07:05:45.327Z,247.44
2023-04-27T07:06:45.245Z,249.87
2023-04-27T07:07:45.611Z,250.00
2023-04-27T07:08:45.300Z,250.00
2023-04-27T07:09:45.230Z,249.46
2023-04-27T07:10:45.214Z,248.88
2023-04-27T07:11:45.211Z,249.06
2023-04-27T07:12:45.213Z,249.30
2023-04-27T07:13:45.538Z,249.08
2023-04-27T07:14:45.211Z,250.00
2023-04-27T07:15:45.249Z,249.42
2023-04-27T07:16:45.195Z,249.69
2023-04-27T07:17:45.273Z,249.60
2023-04-27T07:18:45.482Z,250.00
2023-04-27T07:19:45.203Z,249.66
2023-04-27T07:20:45.189Z,249.89
2023-04-27T07:21:45.240Z,249.94
2023-04-27T07:22:45.187Z,249.88
2023-04-27T07:23:45.161Z,249.65
2023-04-27T07:24:45.135Z,248.83
2023-04-27T07:25:46.095Z,248.39
2023-04-27T07:26:45.165Z,249.78
2023-04-27T07:27:45.137Z,248.51
2023-04-27T07:28:45.189Z,250.00
2023-04-27T07:29:45.135Z,249.95
2023-04-27T07:30:45.186Z,246.80
2023-04-27T07:31:45.124Z,245.30
2023-04-27T07:32:46.056Z,248.82
2023-04-27T07:33:45.145Z,244.84
2023-04-27T07:34:53.653Z,245.66
2023-04-27T07:35:46.502Z,245.47
2023-04-27T07:36:45.129Z,237.27
2023-04-27T07:37:45.222Z,240.74
2023-04-27T07:38:45.510Z,241.55
2023-04-27T07:39:45.094Z,245.94
2023-04-27T07:40:46.066Z,242.91
2023-04-27T07:41:45.112Z,240.08
2023-04-27T07:42:45.067Z,236.83
2023-04-27T07:43:45.034Z,232.47
2023-04-27T07:44:45.049Z,232.59
2023-04-27T07:45:45.181Z,232.51
2023-04-27T07:46:45.135Z,230.68
2023-04-27T07:47:45.220Z,231.22
2023-04-27T07:48:47.025Z,230.64
2023-04-27T07:49:45.211Z,229.85
2023-04-27T07:50:45.504Z,229.53
2023-04-27T07:51:45.185Z,228.63
2023-04-27T07:52:45.236Z,227.91
2023-04-27T07:53:47.257Z,228.08
2023-04-27T07:54:45.289Z,227.94
2023-04-27T07:55:45.514Z,227.03
2023-04-27T07:56:45.395Z,226.73
2023-04-27T07:57:45.296Z,225.51
2023-04-27T07:58:45.350Z,224.27
2023-04-27T07:59:45.410Z,224.67
2023-04-27T08:00:45.382Z,224.08
2023-04-27T08:01:45.415Z,223.18
2023-04-27T08:02:46.289Z,223.06
2023-04-27T08:03:45.755Z,221.75
2023-04-27T08:04:45.567Z,222.01
2023-04-27T08:05:45.600Z,221.79
2023-04-27T08:06:45.904Z,221.32
2023-04-27T08:07:45.845Z,221.46
2023-04-27T08:08:45.429Z,221.45
2023-04-27T08:09:45.498Z,220.67
2023-04-27T08:10:45.491Z,220.75
2023-04-27T08:11:45.525Z,219.49
2023-04-27T08:12:45.529Z,220.27
2023-04-27T08:13:45.579Z,218.31
2023-04-27T08:14:45.592Z,218.71
2023-04-27T08:15:45.649Z,218.71
2023-04-27T08:16:45.681Z,218.89
2023-04-27T08:17:45.687Z,217.55
2023-04-27T08:18:45.715Z,218.66
2023-04-27T08:19:45.732Z,218.42
2023-04-27T08:20:45.770Z,216.98
2023-04-27T08:21:45.930Z,217.29
2023-04-27T08:22:45.820Z,218.68
2023-04-27T08:23:45.862Z,221.07
2023-04-27T08:24:45.850Z,219.09
2023-04-27T08:25:45.986Z,219.34
2023-04-27T08:26:45.898Z,221.73
2023-04-27T08:27:46.014Z,221.95
2023-04-27T08:28:46.039Z,222.25
2023-04-27T08:29:45.942Z,219.92
2023-04-27T08:30:46.005Z,218.84
2023-04-27T08:31:45.997Z,218.88
2023-04-27T08:32:46.123Z,218.60
2023-04-27T08:33:46.012Z,218.29
2023-04-27T08:34:46.020Z,218.43
2023-04-27T08:35:46.583Z,217.98
2023-04-27T08:36:46.065Z,217.54
2023-04-27T08:37:46.067Z,217.66
2023-04-27T08:38:46.636Z,217.35
2023-04-27T08:39:46.105Z,216.17
2023-04-27T08:40:46.143Z,216.47
2023-04-27T08:41:46.237Z,215.56
2023-04-27T08:42:46.148Z,217.74
2023-04-27T08:43:46.166Z,214.52
2023-04-27T08:44:46.218Z,211.65
2023-04-27T08:45:46.235Z,205.01
2023-04-27T08:46:46.327Z,207.09
2023-04-27T08:47:46.254Z,205.55
2023-04-27T08:48:46.306Z,206.61
2023-04-27T08:49:46.253Z,206.81
2023-04-27T08:50:46.284Z,206.90
2023-04-27T08:51:46.289Z,207.06
2023-04-27T08:52:46.314Z,207.23
2023-04-27T08:53:46.555Z,206.64
2023-04-27T08:54:46.357Z,208.86
2023-04-27T08:55:46.364Z,208.88
2023-04-27T08:56:46.418Z,209.12
2023-04-27T08:57:46.429Z,209.17
2023-04-27T08:58:46.416Z,209.36
2023-04-27T08:59:46.489Z,210.03
2023-04-27T09:00:46.531Z,209.53
2023-04-27T09:01:46.537Z,210.40
2023-04-27T09:02:46.623Z,210.30
2023-04-27T09:03:46.841Z,211.02
2023-04-27T09:04:46.610Z,211.34
2023-04-27T09:05:56.486Z,211.53
2023-04-27T09:06:47.563Z,211.61
2023-04-27T09:07:46.497Z,211.76
2023-04-27T09:08:46.533Z,211.26
2023-04-27T09:09:46.525Z,212.10
2023-04-27T09:10:46.493Z,212.05
2023-04-27T09:11:46.501Z,211.83
2023-04-27T09:12:46.525Z,211.58
2023-04-27T09:13:46.475Z,211.00
2023-04-27T09:14:46.465Z,211.81
2023-04-27T09:15:48.574Z,212.26
2023-04-27T09:16:46.630Z,213.19
2023-04-27T09:17:46.473Z,212.42
2023-04-27T09:18:46.451Z,212.02
2023-04-27T09:19:46.439Z,212.03
2023-04-27T09:20:46.417Z,211.83
2023-04-27T09:21:47.743Z,211.93
2023-04-27T09:22:46.421Z,211.66
2023-04-27T09:23:46.405Z,211.80
2023-04-27T09:24:46.402Z,212.47
2023-04-27T09:25:46.395Z,212.86
2023-04-27T09:26:46.372Z,212.43
2023-04-27T09:27:46.384Z,212.25
2023-04-27T09:28:46.382Z,212.20
2023-04-27T09:29:46.378Z,212.32
2023-04-27T09:30:46.377Z,212.53
2023-04-27T09:31:46.430Z,213.10
2023-04-27T09:32:46.442Z,212.25
2023-04-27T09:33:46.398Z,212.60
2023-04-27T09:34:46.433Z,212.47
2023-04-27T09:35:46.373Z,212.34
2023-04-27T09:36:46.462Z,212.73
2023-04-27T09:37:47.385Z,213.38
2023-04-27T09:38:46.381Z,212.58
2023-04-27T09:39:46.374Z,211.61
2023-04-27T09:40:46.356Z,212.14
2023-04-27T09:41:46.354Z,212.34
2023-04-27T09:42:46.358Z,212.60
2023-04-27T09:43:46.351Z,211.90
2023-04-27T09:44:46.360Z,212.48
2023-04-27T09:45:46.378Z,211.62
2023-04-27T09:46:46.375Z,212.02
2023-04-27T09:47:46.453Z,212.79
2023-04-27T09:48:46.442Z,212.28
2023-04-27T09:49:46.468Z,212.84
2023-04-27T09:50:46.507Z,211.97
2023-04-27T09:51:46.503Z,213.29
2023-04-27T09:52:46.527Z,210.89
2023-04-27T09:53:46.547Z,212.51
2023-04-27T09:54:46.594Z,212.66
2023-04-27T09:55:46.613Z,213.46
2023-04-27T09:56:46.650Z,211.45
2023-04-27T09:57:46.698Z,212.55
2023-04-27T09:58:46.752Z,212.52
2023-04-27T09:59:46.759Z,212.53
2023-04-27T10:00:46.872Z,212.63
2023-04-27T10:01:46.923Z,213.08
2023-04-27T10:02:53.253Z,213.04
2023-04-27T10:03:48.026Z,213.13
2023-04-27T10:04:46.952Z,213.26
2023-04-27T10:05:46.895Z,212.59
2023-04-27T10:06:46.894Z,213.06
2023-04-27T10:07:46.918Z,213.34
2023-04-27T10:08:46.871Z,213.15
2023-04-27T10:09:46.878Z,212.88
2023-04-27T10:10:46.841Z,212.90
2023-04-27T10:11:46.895Z,213.16
2023-04-27T10:12:47.006Z,213.36
2023-04-27T10:13:46.976Z,213.08
2023-04-27T10:14:47.047Z,212.53
2023-04-27T10:15:47.092Z,213.50
2023-04-27T10:16:47.263Z,212.82
2023-04-27T10:17:47.243Z,212.48
2023-04-27T10:18:47.254Z,213.46
2023-04-27T10:19:47.293Z,212.83
2023-04-27T10:20:47.339Z,213.44
2023-04-27T10:21:47.428Z,213.16
2023-04-27T10:22:47.442Z,213.18
2023-04-27T10:23:47.502Z,213.16
2023-04-27T10:24:47.556Z,212.64
2023-04-27T10:25:47.569Z,212.62
2023-04-27T10:26:47.619Z,213.88
2023-04-27T10:27:47.669Z,212.56
2023-04-27T10:28:47.740Z,213.88
2023-04-27T10:29:48.075Z,214.12
2023-04-27T10:30:47.846Z,213.15
2023-04-27T10:31:47.859Z,213.93
2023-04-27T10:32:47.918Z,213.78
2023-04-27T10:33:47.960Z,212.94
2023-04-27T10:34:48.089Z,213.67
2023-04-27T10:35:48.005Z,213.28
2023-04-27T10:36:48.080Z,213.45
2023-04-27T10:37:48.098Z,212.78
2023-04-27T10:38:48.172Z,213.67
2023-04-27T10:39:49.853Z,211.54
2023-04-27T10:40:48.221Z,213.40
2023-04-27T10:41:48.570Z,213.57
2023-04-27T10:42:48.286Z,213.59
2023-04-27T10:43:48.318Z,212.91
2023-04-27T10:44:48.368Z,212.22
2023-04-27T10:45:48.442Z,212.58
2023-04-27T10:46:48.399Z,213.27
2023-04-27T10:47:48.524Z,213.17
2023-04-27T10:48:48.484Z,213.27
2023-04-27T10:49:48.520Z,213.09
2023-04-27T10:50:48.537Z,212.80
2023-04-27T10:51:48.595Z,212.97
2023-04-27T10:52:48.589Z,212.73
2023-04-27T10:53:48.604Z,212.81
2023-04-27T10:54:48.654Z,210.36
2023-04-27T10:55:48.654Z,211.49
2023-04-27T10:56:48.750Z,212.17
2023-04-27T10:57:48.723Z,213.91
2023-04-27T10:58:49.604Z,212.66
2023-04-27T10:59:48.789Z,213.92
2023-04-27T11:00:48.814Z,211.86
2023-04-27T11:01:48.862Z,211.44
2023-04-27T11:02:48.926Z,209.52
2023-04-27T11:03:49.015Z,212.16
2023-04-27T11:04:49.085Z,210.33
2023-04-27T11:05:49.021Z,212.55
2023-04-27T11:06:49.022Z,212.75
2023-04-27T11:07:49.010Z,212.80
2023-04-27T11:08:49.037Z,207.91
2023-04-27T11:09:49.070Z,208.40
2023-04-27T11:10:49.230Z,210.21
2023-04-27T11:11:49.108Z,210.20
2023-04-27T11:12:49.178Z,211.44
2023-04-27T11:13:49.171Z,210.31
2023-04-27T11:14:49.212Z,212.46
2023-04-27T11:15:49.270Z,208.50
2023-04-27T11:16:49.347Z,209.98
2023-04-27T11:17:49.509Z,213.23
2023-04-27T11:18:49.339Z,211.27
2023-04-27T11:19:49.403Z,211.68
2023-04-27T11:20:49.424Z,209.55
2023-04-27T11:21:50.088Z,212.00
2023-04-27T11:22:49.487Z,211.67
2023-04-27T11:23:50.105Z,211.71
2023-04-27T11:24:50.090Z,209.57
2023-04-27T11:25:49.622Z,210.98
2023-04-27T11:26:50.123Z,210.36
2023-04-27T11:27:50.594Z,211.78
2023-04-27T11:28:49.692Z,208.86
2023-04-27T11:29:50.140Z,210.97
2023-04-27T11:30:49.788Z,209.34
2023-04-27T11:31:50.114Z,212.22
2023-04-27T11:32:49.859Z,209.66
2023-04-27T11:33:49.858Z,210.18
2023-04-27T11:34:49.898Z,208.63
2023-04-27T11:35:49.912Z,211.28
2023-04-27T11:36:49.962Z,211.83
2023-04-27T11:37:49.982Z,210.74
2023-04-27T11:38:50.139Z,208.46
2023-04-27T11:39:50.062Z,211.17
2023-04-27T11:40:50.073Z,208.61
2023-04-27T11:41:50.166Z,211.23
2023-04-27T11:42:50.117Z,207.17
2023-04-27T11:43:50.132Z,208.89
2023-04-27T11:44:50.153Z,212.41
2023-04-27T11:45:50.209Z,208.96
2023-04-27T11:46:50.322Z,210.92
2023-04-27T11:47:50.280Z,209.50
2023-04-27T11:48:50.269Z,210.54
2023-04-27T11:49:50.303Z,206.76
2023-04-27T11:50:50.369Z,209.74
2023-04-27T11:51:50.362Z,210.70
2023-04-27T11:52:50.425Z,209.20
2023-04-27T11:53:50.435Z,210.60
2023-04-27T11:54:50.519Z,210.03
2023-04-27T11:55:50.467Z,210.78
2023-04-27T11:56:50.502Z,211.72
2023-04-27T11:57:50.537Z,210.48
2023-04-27T11:58:50.556Z,210.72
2023-04-27T11:59:50.585Z,209.28
2023-04-27T12:00:50.662Z,210.28
2023-04-27T12:01:50.661Z,208.96
2023-04-27T12:02:50.844Z,208.10
2023-04-27T12:03:50.985Z,209.25
2023-04-27T12:04:50.919Z,210.07
2023-04-27T12:05:50.874Z,208.81
2023-04-27T12:06:50.808Z,208.01
2023-04-27T12:07:50.853Z,209.63
2023-04-27T12:08:50.841Z,207.14
2023-04-27T12:09:50.904Z,210.06
2023-04-27T12:10:50.907Z,209.95
2023-04-27T12:11:50.925Z,209.27
2023-04-27T12:12:51.039Z,207.82
2023-04-27T12:13:50.989Z,209.92
2023-04-27T12:14:51.063Z,207.35
2023-04-27T12:15:51.082Z,208.33
2023-04-27T12:16:51.255Z,210.23
2023-04-27T12:17:51.200Z,209.97
2023-04-27T12:18:51.198Z,208.78
2023-04-27T12:19:51.247Z,209.22
2023-04-27T12:20:51.296Z,208.20
2023-04-27T12:21:51.316Z,209.08
2023-04-27T12:22:51.426Z,208.66
2023-04-27T12:23:51.420Z,209.88
2023-04-27T12:24:51.449Z,208.93
2023-04-27T12:25:51.516Z,208.01
2023-04-27T12:26:51.563Z,208.42
2023-04-27T12:27:51.610Z,208.00
2023-04-27T12:28:51.722Z,208.02
2023-04-27T12:29:51.766Z,207.81